Time;durP1;ratioP1;P1;durP2;ratioP2;P2;SDS_P1;SDS_P2;PMS_P1;PMS_P2;Temp;Humidity;BMP_temperature;BMP_pressure;BME280_temperature;BME280_humidity;BME280_pressure;Samples;Min_cycle;Max_cycle;Signal;HPM_P1;HPM_P2
2023/06/28 00:01:59;;;;;;;6.93;2.92;;;;;;;15.75;100.00;101817.59;5025220;28;20029;-62
2023/06/28 00:04:24;;;;;;;5.30;2.28;;;;;;;15.70;100.00;101820.25;5026526;28;20037;-61
2023/06/28 00:06:49;;;;;;;5.88;2.78;;;;;;;15.73;100.00;101809.56;5025312;28;20112;-60
2023/06/28 00:09:14;;;;;;;3.67;2.55;;;;;;;15.67;100.00;101815.22;5026657;28;20030;-61
2023/06/28 00:11:40;;;;;;;4.47;2.47;;;;;;;15.64;100.00;101810.16;5027394;28;20025;-60
2023/06/28 00:14:05;;;;;;;4.70;2.70;;;;;;;15.63;100.00;101812.09;5026528;28;20026;-61
2023/06/28 00:16:30;;;;;;;7.22;2.90;;;;;;;15.66;100.00;101813.50;5025369;28;20040;-61
2023/06/28 00:19:00;;;;;;;5.47;2.63;;;;;;;15.68;100.00;101805.81;5026456;28;20033;-61
2023/06/28 00:21:25;;;;;;;4.57;2.60;;;;;;;15.65;100.00;101811.84;5024930;28;20628;-63
2023/06/28 00:23:51;;;;;;;5.95;2.55;;;;;;;15.63;100.00;101817.63;5026878;28;20037;-60
2023/06/28 00:26:16;;;;;;;6.15;2.92;;;;;;;15.57;100.00;101813.84;5025227;28;20032;-61
2023/06/28 00:28:41;;;;;;;4.20;2.72;;;;;;;15.66;100.00;101813.50;5026439;28;20041;-62
2023/06/28 00:31:07;;;;;;;4.53;3.03;;;;;;;15.65;100.00;101815.44;5018526;28;20022;-61
2023/06/28 00:33:33;;;;;;;4.68;2.70;;;;;;;15.67;100.00;101815.22;5026039;28;20022;-62
2023/06/28 00:35:58;;;;;;;7.07;3.35;;;;;;;15.67;100.00;101818.84;5023259;28;20025;-61
2023/06/28 00:38:23;;;;;;;5.70;2.90;;;;;;;15.74;100.00;101827.00;5025267;28;20052;-60
2023/06/28 00:40:49;;;;;;;7.85;3.28;;;;;;;15.71;100.00;101822.81;5041298;28;20488;-62
2023/06/28 00:43:14;;;;;;;5.63;3.20;;;;;;;15.68;100.00;101827.97;5024291;28;20044;-62
2023/06/28 00:45:39;;;;;;;6.25;2.85;;;;;;;15.67;100.00;101820.75;5025589;28;20021;-60
2023/06/28 00:48:06;;;;;;;5.65;3.00;;;;;;;15.66;100.00;101824.59;5025861;28;20045;-60
2023/06/28 00:50:31;;;;;;;5.35;3.05;;;;;;;15.68;100.00;101819.66;5024896;28;20036;-61
2023/06/28 00:52:57;;;;;;;5.47;3.28;;;;;;;15.73;100.00;101823.41;5026493;28;20029;-62
2023/06/28 00:55:22;;;;;;;5.47;3.38;;;;;;;15.76;100.00;101828.47;5026482;28;20026;-61
2023/06/28 00:57:47;;;;;;;5.65;3.03;;;;;;;15.77;100.00;101818.22;5026145;28;20017;-60
2023/06/28 01:00:14;;;;;;;5.43;3.13;;;;;;;15.77;100.00;101827.38;5025159;28;20543;-62
2023/06/28 01:02:44;;;;;;;5.32;2.58;;;;;;;15.78;100.00;101819.91;5024859;28;20029;-61
2023/06/28 01:05:13;;;;;;;4.45;3.00;;;;;;;15.73;100.00;101814.25;5025373;28;20049;-60
2023/06/28 01:07:39;;;;;;;6.63;3.35;;;;;;;15.73;100.00;101823.41;5025854;28;20044;-61
2023/06/28 01:10:06;;;;;;;5.65;3.10;;;;;;;15.73;100.00;101828.09;5026260;28;20032;-61
2023/06/28 01:12:32;;;;;;;6.82;3.58;;;;;;;15.73;100.00;101828.09;5025654;28;20060;-61
2023/06/28 01:14:57;;;;;;;4.88;3.45;;;;;;;15.77;100.00;101816.31;5024913;28;20060;-60
2023/06/28 01:17:22;;;;;;;5.25;3.40;;;;;;;15.74;100.00;101815.94;5026211;28;20133;-60
2023/06/28 01:19:48;;;;;;;6.30;3.40;;;;;;;15.74;100.00;101815.94;5024301;28;20037;-61
2023/06/28 01:22:13;;;;;;;6.18;3.38;;;;;;;15.76;100.00;101813.75;5025577;28;20033;-62
2023/06/28 01:24:40;;;;;;;5.22;3.30;;;;;;;15.72;100.00;101816.19;5025725;28;20021;-61
2023/06/28 01:27:09;;;;;;;6.13;3.25;;;;;;;15.73;100.00;101814.25;5025536;28;20048;-61
2023/06/28 01:29:36;;;;;;;7.10;3.80;;;;;;;15.76;100.00;101810.97;5034660;28;20033;-62
2023/06/28 01:32:04;;;;;;;7.47;3.40;;;;;;;15.73;100.00;101814.25;5031874;28;20738;-60
2023/06/28 01:34:29;;;;;;;6.85;3.50;;;;;;;15.71;100.00;101805.31;5030758;28;20111;-60
2023/06/28 01:36:56;;;;;;;5.43;2.95;;;;;;;15.66;100.00;101811.63;5025358;28;20504;-60
2023/06/28 01:39:23;;;;;;;5.20;3.15;;;;;;;15.66;100.00;101817.16;5026273;28;20369;-61
2023/06/28 01:41:50;;;;;;;7.40;3.88;;;;;;;15.64;100.00;101811.00;5026682;28;20025;-61
2023/06/28 01:44:16;;;;;;;6.23;3.67;;;;;;;15.65;100.00;101815.44;5023755;28;20063;-62
2023/06/28 01:46:42;;;;;;;6.32;3.63;;;;;;;15.59;100.00;101813.59;5026744;28;20235;-60
2023/06/28 01:49:08;;;;;;;6.28;3.88;;;;;;;15.60;100.00;101812.53;5025238;28;20431;-61
2023/06/28 01:51:36;;;;;;;7.75;3.80;;;;;;;15.66;100.00;101819.06;5025009;28;20033;-60
2023/06/28 01:54:03;;;;;;;6.60;4.20;;;;;;;15.66;100.00;101814.38;5025024;28;20076;-60
2023/06/28 01:56:28;;;;;;;8.10;4.45;;;;;;;15.67;100.00;101804.16;5026081;28;20446;-61
2023/06/28 01:58:54;;;;;;;8.57;4.53;;;;;;;15.64;100.00;101805.44;5026096;28;20033;-61
2023/06/28 02:01:19;;;;;;;6.10;4.85;;;;;;;15.57;100.00;101804.72;5024006;28;20025;-61
2023/06/28 02:03:45;;;;;;;7.03;4.88;;;;;;;15.61;100.00;101805.06;5024501;28;20041;-61
2023/06/28 02:06:10;;;;;;;7.53;5.00;;;;;;;15.57;100.00;101800.00;5024722;28;20425;-62
2023/06/28 02:08:35;;;;;;;7.30;3.97;;;;;;;15.55;100.00;101804.94;5025232;28;20038;-60
2023/06/28 02:11:01;;;;;;;6.75;3.78;;;;;;;15.52;100.00;101810.97;5025007;28;20033;-62
2023/06/28 02:13:26;;;;;;;5.90;3.90;;;;;;;15.51;100.00;101806.53;5025148;28;20038;-61
2023/06/28 02:15:51;;;;;;;6.22;3.95;;;;;;;15.52;100.00;101799.91;5026568;28;20107;-60
2023/06/28 02:18:16;;;;;;;6.72;4.35;;;;;;;15.48;100.00;101801.44;5024458;28;20052;-62
2023/06/28 02:20:43;;;;;;;4.82;3.65;;;;;;;15.45;100.00;101803.84;5024532;28;20035;-60
2023/06/28 02:23:08;;;;;;;5.85;3.72;;;;;;;15.43;100.00;101801.31;5025353;28;20044;-62
2023/06/28 02:25:34;;;;;;;7.22;3.67;;;;;;;15.41;100.00;101797.09;5029044;28;20018;-60
2023/06/28 02:27:59;;;;;;;7.47;4.10;;;;;;;15.43;100.00;101798.56;5028696;28;20073;-60
2023/06/28 02:30:24;;;;;;;5.72;3.97;;;;;;;15.39;100.00;101796.50;5029008;28;20296;-62
2023/06/28 02:32:50;;;;;;;6.53;3.53;;;;;;;15.36;100.00;101791.44;5029263;28;20468;-61
2023/06/28 02:35:15;;;;;;;6.25;3.67;;;;;;;15.33;100.00;101787.25;5026750;28;20750;-62
2023/06/28 02:37:40;;;;;;;7.68;3.97;;;;;;;15.30;100.00;101790.47;5057117;22;20074;-61
2023/06/28 02:40:07;;;;;;;6.10;3.40;;;;;;;15.29;100.00;101788.78;5007702;28;20133;-61
2023/06/28 02:42:32;;;;;;;5.65;3.10;;;;;;;15.24;100.00;101783.13;5008092;28;20030;-61
2023/06/28 02:44:58;;;;;;;6.40;3.30;;;;;;;15.30;100.00;101787.72;5006840;28;20026;-61
2023/06/28 02:47:23;;;;;;;4.35;3.05;;;;;;;15.23;100.00;101796.13;5005835;28;20030;-61
2023/06/28 02:49:48;;;;;;;5.85;3.17;;;;;;;15.16;100.00;101786.28;5008015;28;20032;-62
2023/06/28 02:52:14;;;;;;;5.90;3.60;;;;;;;15.11;100.00;101789.75;5009135;28;20017;-61
2023/06/28 02:54:39;;;;;;;6.35;3.38;;;;;;;15.11;100.00;101784.22;5008866;28;20025;-60
2023/06/28 02:57:08;;;;;;;6.55;3.00;;;;;;;15.05;100.00;101786.00;5007750;28;20183;-61
2023/06/28 02:59:33;;;;;;;7.05;3.30;;;;;;;15.04;100.00;101783.47;5008222;28;20591;-61
2023/06/28 03:01:59;;;;;;;6.50;3.47;;;;;;;15.04;100.00;101784.31;5006811;28;20022;-60
2023/06/28 03:04:27;;;;;;;5.40;3.25;;;;;;;15.02;100.00;101789.25;5007206;28;20037;-62
2023/06/28 03:06:52;;;;;;;6.45;3.72;;;;;;;14.99;100.00;101786.09;5008486;28;20053;-61
2023/06/28 03:09:18;;;;;;;8.32;3.65;;;;;;;15.04;100.00;101783.47;5008109;28;20171;-61
2023/06/28 03:11:43;;;;;;;6.43;4.10;;;;;;;15.01;100.00;101783.97;5008032;28;20042;-61
2023/06/28 03:14:08;;;;;;;6.38;3.60;;;;;;;14.98;100.00;101782.50;5006703;28;20037;-61
2023/06/28 03:16:34;;;;;;;6.30;3.25;;;;;;;15.03;100.00;101777.09;5005588;28;20079;-60
2023/06/28 03:18:59;;;;;;;7.30;3.92;;;;;;;14.99;100.00;101786.94;5007663;28;20030;-60
2023/06/28 03:21:24;;;;;;;7.97;4.00;;;;;;;15.01;100.00;101779.25;5005166;28;20033;-61
2023/06/28 03:23:50;;;;;;;6.97;3.90;;;;;;;14.98;100.00;101776.97;5007293;28;20034;-60
2023/06/28 03:26:16;;;;;;;7.90;4.25;;;;;;;15.01;100.00;101770.97;5007283;28;20044;-61
2023/06/28 03:28:41;;;;;;;6.80;4.10;;;;;;;15.02;100.00;101772.66;5008224;28;20551;-61
2023/06/28 03:31:07;;;;;;;6.30;4.07;;;;;;;15.03;100.00;101777.09;5008000;28;20044;-60
2023/06/28 03:33:32;;;;;;;7.90;4.30;;;;;;;15.02;100.00;101774.56;5005344;28;20037;-61
2023/06/28 03:35:57;;;;;;;5.85;4.20;;;;;;;15.05;100.00;101776.84;5003868;28;20488;-61
2023/06/28 03:38:22;;;;;;;7.53;4.20;;;;;;;15.08;100.00;101772.78;5007377;28;20061;-62
2023/06/28 03:40:48;;;;;;;6.88;4.20;;;;;;;15.10;100.00;101768.66;5007695;28;20026;-61
2023/06/28 03:43:13;;;;;;;6.82;4.22;;;;;;;15.11;100.00;101772.31;5007057;28;20097;-62
2023/06/28 03:45:38;;;;;;;6.20;4.25;;;;;;;15.10;100.00;101770.59;5007506;28;20022;-60
2023/06/28 03:48:04;;;;;;;8.15;4.10;;;;;;;15.09;100.00;101771.69;5007605;28;20080;-62
2023/06/28 03:50:29;;;;;;;7.95;4.03;;;;;;;15.08;100.00;101772.78;5006069;28;20510;-61
2023/06/28 03:52:55;;;;;;;7.07;4.15;;;;;;;15.07;100.00;101765.56;5008063;28;20057;-60
2023/06/28 03:55:20;;;;;;;7.70;3.85;;;;;;;15.03;100.00;101773.47;5007344;28;20040;-62
2023/06/28 03:57:45;;;;;;;7.45;3.65;;;;;;;15.01;100.00;101770.97;5007490;28;20029;-61
2023/06/28 04:00:12;;;;;;;5.97;3.70;;;;;;;14.98;100.00;101763.13;5006888;28;20113;-60
2023/06/28 04:02:38;;;;;;;7.57;3.70;;;;;;;14.95;100.00;101776.56;5007346;28;20030;-61
2023/06/28 04:05:04;;;;;;;5.45;3.85;;;;;;;14.95;100.00;101769.16;5006443;28;20017;-60
2023/06/28 04:07:30;;;;;;;8.27;3.83;;;;;;;15.00;100.00;101769.28;5007226;28;20611;-61
2023/06/28 04:09:55;;;;;;;7.00;3.58;;;;;;;15.03;100.00;101767.94;5007475;28;20026;-62
2023/06/28 04:12:20;;;;;;;6.63;3.65;;;;;;;15.01;100.00;101767.34;5007466;28;20468;-61
2023/06/28 04:14:46;;;;;;;5.97;3.42;;;;;;;14.95;100.00;101758.09;5006696;28;20028;-60
2023/06/28 04:17:11;;;;;;;5.88;3.45;;;;;;;14.92;100.00;101758.56;5007009;28;20022;-60
2023/06/28 04:19:36;;;;;;;7.47;3.90;;;;;;;14.93;100.00;101764.94;5005983;28;20022;-61
2023/06/28 04:22:02;;;;;;;8.25;3.78;;;;;;;14.92;100.00;101757.72;5006722;28;20036;-60
2023/06/28 04:24:27;;;;;;;6.70;4.05;;;;;;;14.91;100.00;101759.63;5006624;28;20087;-61
2023/06/28 04:26:52;;;;;;;7.75;4.20;;;;;;;14.94;100.00;101759.16;5007109;28;20033;-61
2023/06/28 04:29:18;;;;;;;7.25;3.85;;;;;;;14.90;100.00;101760.72;5006535;28;20025;-60
2023/06/28 04:31:43;;;;;;;6.70;3.60;;;;;;;14.92;100.00;101757.72;5006520;28;20026;-61
2023/06/28 04:34:08;;;;;;;7.05;3.60;;;;;;;14.95;100.00;101763.63;5006690;28;20053;-61
2023/06/28 04:36:34;;;;;;;7.38;3.88;;;;;;;14.92;100.00;101764.09;5005201;28;20038;-61
2023/06/28 04:39:03;;;;;;;6.55;3.50;;;;;;;14.98;100.00;101768.66;5002203;28;20109;-60
2023/06/28 04:41:28;;;;;;;7.40;3.83;;;;;;;14.99;100.00;101767.56;5006022;28;20026;-61
2023/06/28 04:43:56;;;;;;;7.35;4.00;;;;;;;15.02;100.00;101761.56;5006085;28;20376;-61
2023/06/28 04:46:28;;;;;;;7.38;4.57;;;;;;;15.07;100.00;101769.16;5005007;28;20022;-61
2023/06/28 04:48:55;;;;;;;8.07;4.47;;;;;;;15.13;100.00;101764.59;5006725;28;20054;-62
2023/06/28 04:51:20;;;;;;;7.63;4.22;;;;;;;15.13;100.00;101770.13;5005192;28;20028;-61
2023/06/28 04:53:47;;;;;;;5.88;3.78;;;;;;;15.15;100.00;101766.03;5006633;28;20384;-62
2023/06/28 04:56:14;;;;;;;6.97;4.10;;;;;;;15.13;100.00;101768.22;5006223;28;20029;-61
2023/06/28 04:58:40;;;;;;;7.68;4.75;;;;;;;15.13;100.00;101781.19;5006173;28;20456;-61
2023/06/28 05:01:07;;;;;;;8.23;4.90;;;;;;;15.14;100.00;101782.88;5006603;28;20434;-60
2023/06/28 05:03:33;;;;;;;8.82;5.03;;;;;;;15.17;100.00;101785.19;5006869;28;20053;-62
2023/06/28 05:06:01;;;;;;;9.20;5.47;;;;;;;15.17;100.00;101779.66;5004248;28;20519;-62
2023/06/28 05:08:27;;;;;;;10.30;5.78;;;;;;;15.17;100.00;101777.72;5006443;28;20026;-62
2023/06/28 05:10:53;;;;;;;10.20;5.72;;;;;;;15.18;100.00;101778.56;5006401;28;20076;-60
2023/06/28 05:13:18;;;;;;;8.98;5.10;;;;;;;15.24;100.00;101775.66;5005468;28;20037;-61
2023/06/28 05:15:43;;;;;;;8.38;4.50;;;;;;;15.25;100.00;101770.97;5005998;28;20071;-61
2023/06/28 05:18:09;;;;;;;8.40;4.88;;;;;;;15.25;100.00;101770.97;5006347;28;20057;-60
2023/06/28 05:20:34;;;;;;;8.82;4.70;;;;;;;15.26;100.00;101758.84;5004738;28;20033;-60
2023/06/28 05:23:16;;;;;;;7.82;4.45;;;;;;;15.32;100.00;101763.41;5006183;28;20026;-60
2023/06/28 05:25:43;;;;;;;7.65;4.65;;;;;;;15.33;100.00;101765.09;5005653;28;20029;-61
2023/06/28 05:28:09;;;;;;;7.20;4.50;;;;;;;15.35;100.00;101767.63;5005536;28;20030;-61
2023/06/28 05:30:35;;;;;;;6.75;4.35;;;;;;;15.39;100.00;101753.06;5006158;28;20022;-60
2023/06/28 05:33:02;;;;;;;8.07;4.57;;;;;;;15.38;100.00;101751.38;5005813;28;20480;-61
2023/06/28 05:35:29;;;;;;;7.82;4.97;;;;;;;15.41;100.00;101767.53;5004638;28;20396;-61
2023/06/28 05:37:54;;;;;;;7.93;4.70;;;;;;;15.40;100.00;101754.75;5006426;28;20050;-60
2023/06/28 05:40:20;;;;;;;8.63;4.95;;;;;;;15.41;100.00;101761.09;5005246;28;20041;-62
2023/06/28 05:42:45;;;;;;;6.82;4.68;;;;;;;15.43;100.00;101758.97;5005718;28;20061;-60
2023/06/28 05:45:10;;;;;;;6.97;4.72;;;;;;;15.45;100.00;101763.16;5005922;28;20433;-61
2023/06/28 05:47:35;;;;;;;7.72;5.18;;;;;;;15.44;100.00;101755.94;5006178;28;20837;-61
2023/06/28 05:50:01;;;;;;;10.27;5.18;;;;;;;15.38;100.00;101756.91;5004848;28;20362;-60
2023/06/28 05:52:26;;;;;;;7.93;4.97;;;;;;;15.40;100.00;101757.50;5006292;28;20040;-61
2023/06/28 05:54:51;;;;;;;8.48;5.13;;;;;;;15.42;100.00;101757.28;5006247;28;20025;-61
2023/06/28 05:57:17;;;;;;;7.18;5.38;;;;;;;15.47;100.00;101761.00;5005709;28;20156;-62
2023/06/28 05:59:42;;;;;;;9.30;5.10;;;;;;;15.50;100.00;101763.28;5008527;28;20092;-60
2023/06/28 06:02:07;;;;;;;8.23;5.70;;;;;;;15.52;100.00;101763.06;5009375;28;20030;-62
2023/06/28 06:04:33;;;;;;;9.75;5.70;;;;;;;15.50;100.00;101760.50;5008178;28;20029;-61
2023/06/28 06:06:58;;;;;;;9.13;5.30;;;;;;;15.54;100.00;101761.72;5009523;28;20058;-60
2023/06/28 06:09:23;;;;;;;8.73;5.47;;;;;;;15.64;100.00;101765.84;5009934;28;20022;-62
2023/06/28 06:11:48;;;;;;;8.13;5.57;;;;;;;15.65;100.00;101760.06;5009552;28;20792;-61
2023/06/28 06:14:15;;;;;;;8.25;5.35;;;;;;;15.70;100.00;101762.09;5007475;28;20053;-60
2023/06/28 06:16:41;;;;;;;8.93;5.75;;;;;;;15.74;100.00;101760.53;5009407;28;20639;-61
2023/06/28 06:19:06;;;;;;;8.65;5.93;;;;;;;15.74;100.00;101761.38;5008621;28;20037;-61
2023/06/28 06:21:31;;;;;;;9.38;5.82;;;;;;;15.77;100.00;101746.22;5008356;28;20026;-62
2023/06/28 06:23:57;;;;;;;8.43;5.70;;;;;;;15.75;100.00;101749.22;5009030;28;20026;-61
2023/06/28 06:26:23;;;;;;;8.68;5.68;;;;;;;15.76;100.00;101747.28;5009339;28;20052;-62
2023/06/28 06:28:48;;;;;;;9.45;6.10;;;;;;;15.79;100.00;101746.81;5008854;28;20081;-61
2023/06/28 06:31:15;;;;;;;7.93;5.75;;;;;;;15.81;100.00;101739.94;5008826;28;20372;-61
2023/06/28 06:33:40;;;;;;;9.38;5.72;;;;;;;15.84;100.00;101744.13;5009168;28;20037;-61
2023/06/28 06:36:05;;;;;;;9.82;6.40;;;;;;;15.88;100.00;101745.34;5004285;28;20026;-60
2023/06/28 06:38:31;;;;;;;9.63;6.32;;;;;;;15.89;100.00;101740.63;4996468;28;20034;-61
2023/06/28 06:40:56;;;;;;;10.10;6.40;;;;;;;15.94;100.00;101743.53;5008673;28;20085;-63
2023/06/28 06:43:21;;;;;;;8.68;6.50;;;;;;;16.02;100.00;101748.69;5008782;28;20033;-62
2023/06/28 06:45:47;;;;;;;9.05;6.57;;;;;;;16.02;100.00;101749.53;5009060;28;20038;-60
2023/06/28 06:48:12;;;;;;;9.40;5.90;;;;;;;16.04;100.00;101749.28;5008633;28;20068;-63
2023/06/28 06:50:37;;;;;;;9.93;6.88;;;;;;;16.04;100.00;101752.03;5007408;28;20042;-62
2023/06/28 06:53:03;;;;;;;8.98;6.28;;;;;;;16.06;100.00;101756.25;5008548;28;20504;-61
2023/06/28 06:55:28;;;;;;;9.23;6.50;;;;;;;16.02;100.00;101757.00;5008712;28;20108;-62
2023/06/28 06:57:53;;;;;;;8.70;6.45;;;;;;;16.03;100.00;101759.53;5008997;28;20810;-60
2023/06/28 07:00:19;;;;;;;8.60;6.45;;;;;;;16.06;100.00;101763.72;5008170;28;20026;-61
2023/06/28 07:02:44;;;;;;;10.07;6.72;;;;;;;16.07;100.00;101759.88;5008192;28;20472;-61
2023/06/28 07:05:09;;;;;;;9.02;6.57;;;;;;;16.00;100.00;101754.44;5007008;28;20346;-61
2023/06/28 07:07:35;;;;;;;8.85;7.00;;;;;;;16.05;100.00;101768.41;5003477;28;20096;-62
2023/06/28 07:10:00;;;;;;;10.48;7.30;;;;;;;15.99;100.00;101763.03;5007447;28;20057;-63
2023/06/28 07:12:26;;;;;;;8.77;6.85;;;;;;;16.00;100.00;101771.09;5008384;28;20037;-62
2023/06/28 07:14:51;;;;;;;8.73;6.72;;;;;;;15.99;100.00;101768.56;5008113;28;20054;-61
2023/06/28 07:17:17;;;;;;;11.13;7.57;;;;;;;16.01;100.00;101772.75;5006044;28;20029;-61
2023/06/28 07:19:42;;;;;;;10.95;7.20;;;;;;;16.03;100.00;101773.38;5004411;28;20145;-61
2023/06/28 07:22:07;;;;;;;9.02;7.20;;;;;;;16.03;100.00;101767.84;5003527;28;20654;-60
2023/06/28 07:24:32;;;;;;;10.27;6.88;;;;;;;16.07;100.00;101770.97;5004094;28;20034;-61
2023/06/28 07:26:58;;;;;;;11.45;7.25;;;;;;;16.04;100.00;101775.06;5003974;28;20022;-61
2023/06/28 07:29:24;;;;;;;9.80;7.00;;;;;;;16.07;100.00;101780.13;5019344;28;20037;-61
2023/06/28 07:31:50;;;;;;;9.70;7.60;;;;;;;16.07;100.00;101779.28;5004305;28;20037;-61
2023/06/28 07:34:15;;;;;;;10.38;7.25;;;;;;;16.06;100.00;101774.81;5003110;28;20396;-60
2023/06/28 07:36:40;;;;;;;8.40;6.75;;;;;;;16.08;100.00;101775.41;5004449;28;20179;-61
2023/06/28 07:39:09;;;;;;;10.88;7.60;;;;;;;16.10;100.00;101770.47;5005236;28;20044;-62
2023/06/28 07:41:34;;;;;;;8.90;7.47;;;;;;;16.09;100.00;101771.56;5005345;28;20113;-62
2023/06/28 07:44:00;;;;;;;9.88;7.32;;;;;;;16.17;100.00;101771.19;5005476;28;20125;-62
2023/06/28 07:46:25;;;;;;;8.77;7.20;;;;;;;16.25;100.00;101756.91;5020389;28;20124;-62
2023/06/28 07:48:51;;;;;;;10.60;7.93;;;;;;;16.38;100.00;101755.78;5004921;28;20030;-60
2023/06/28 07:51:16;;;;;;;9.20;7.00;;;;;;;16.43;100.00;101763.38;5005020;28;20422;-60
2023/06/28 07:53:42;;;;;;;12.10;7.20;;;;;;;16.44;100.00;101768.66;5004779;28;20042;-61
2023/06/28 07:56:07;;;;;;;9.30;6.82;;;;;;;16.43;100.00;101768.91;5004932;28;20063;-60
2023/06/28 07:58:36;;;;;;;10.45;7.95;;;;;;;16.48;100.00;101769.84;5005161;28;20053;-62
2023/06/28 08:01:01;;;;;;;9.52;7.28;;;;;;;16.54;100.00;101759.69;5004623;28;20040;-60
2023/06/28 08:03:27;;;;;;;9.43;7.18;;;;;;;16.56;100.00;101761.13;5005060;28;20026;-61
2023/06/28 08:05:52;;;;;;;11.32;7.05;;;;;;;16.62;100.00;101767.59;5004230;28;20025;-61
2023/06/28 08:08:17;;;;;;;11.25;7.05;;;;;;;16.68;100.00;101772.19;5004591;28;20052;-60
2023/06/28 08:10:43;;;;;;;8.95;6.60;;;;;;;16.73;100.00;101763.97;5004792;28;20526;-62
2023/06/28 08:13:08;;;;;;;9.70;7.43;;;;;;;16.84;100.00;101757.53;5005111;28;20018;-60
2023/06/28 08:15:36;;;;;;;10.80;7.10;;;;;;;16.99;100.00;101762.50;5004195;28;20225;-61
2023/06/28 08:18:02;;;;;;;;;;;;;;;17.13;100.00;101757.44;5005360;28;20049;-61
2023/06/28 08:20:28;;;;;;;10.90;6.80;;;;;;;17.16;100.00;101756.94;5003360;28;19917;-61
2023/06/28 08:22:53;;;;;;;11.02;6.60;;;;;;;17.27;100.00;101758.78;5004494;28;20149;-61
2023/06/28 08:25:19;;;;;;;9.43;6.55;;;;;;;17.28;100.00;101759.63;5004270;28;20026;-61
2023/06/28 08:27:44;;;;;;;9.32;5.85;;;;;;;17.27;100.00;101767.13;5005076;28;20105;-60
2023/06/28 08:30:10;;;;;;;8.25;5.70;;;;;;;17.26;100.00;101772.94;5004049;28;20065;-60
2023/06/28 08:32:35;;;;;;;8.43;6.45;;;;;;;17.33;100.00;101763.31;5004684;28;20037;-61
2023/06/28 08:35:05;;;;;;;8.73;5.05;;;;;;;17.32;99.70;101769.13;5003278;28;20025;-60
2023/06/28 08:37:32;;;;;;;8.75;5.07;;;;;;;17.23;97.21;101774.25;5004204;28;20136;-61
2023/06/28 08:39:57;;;;;;;9.27;4.63;;;;;;;17.22;97.73;101771.75;5003771;28;20461;-61
2023/06/28 08:42:23;;;;;;;8.13;4.70;;;;;;;17.18;98.06;101782.50;5004937;28;20036;-61
2023/06/28 08:44:51;;;;;;;8.38;4.63;;;;;;;17.16;97.40;101781.09;5004167;28;20085;-62
2023/06/28 08:47:17;;;;;;;;;;;;;;;17.20;98.54;101773.94;5004991;28;20017;-61
2023/06/28 08:49:42;;;;;;;8.05;4.70;;;;;;;17.09;97.70;101772.94;5003647;28;20071;-60
2023/06/28 08:52:08;;;;;;;6.78;4.45;;;;;;;17.10;97.13;101777.38;5003369;28;20030;-60
2023/06/28 08:54:35;;;;;;;9.85;4.78;;;;;;;17.12;98.64;101773.25;5004185;28;20025;-61
2023/06/28 08:57:01;;;;;;;7.20;4.68;;;;;;;17.21;98.12;101772.84;5004074;28;20026;-61
2023/06/28 08:59:27;;;;;;;10.38;5.45;;;;;;;17.28;98.20;101765.19;5004107;28;20025;-61
2023/06/28 09:01:59;;;;;;;9.68;5.65;;;;;;;17.37;96.47;101766.44;5004086;28;20041;-61
2023/06/28 09:04:26;;;;;;;9.88;5.10;;;;;;;17.48;96.76;101757.16;5003398;28;20018;-62
2023/06/28 09:06:52;;;;;;;7.93;5.45;;;;;;;17.61;94.86;101753.19;5004513;28;20440;-61
2023/06/28 09:09:19;;;;;;;9.30;4.72;;;;;;;17.72;93.49;101759.72;4999964;28;20030;-61
2023/06/28 09:11:44;;;;;;;8.68;4.53;;;;;;;17.82;94.31;101759.91;5004605;28;20014;-62
2023/06/28 09:14:11;;;;;;;9.10;5.03;;;;;;;17.97;93.16;101762.06;5003380;28;20045;-61
2023/06/28 09:16:36;;;;;;;10.15;5.30;;;;;;;18.07;92.55;101751.91;5004599;28;20146;-60
2023/06/28 09:19:01;;;;;;;7.55;4.80;;;;;;;18.25;94.36;101745.19;5004138;28;20053;-62
2023/06/28 09:21:31;;;;;;;8.40;4.97;;;;;;;18.36;91.71;101752.53;5003751;28;20065;-61
2023/06/28 09:23:57;;;;;;;9.27;4.78;;;;;;;18.36;91.22;101748.91;5004515;28;20109;-63
2023/06/28 09:26:33;;;;;;;8.95;4.75;;;;;;;18.35;91.05;101753.66;5005038;28;20540;-60
2023/06/28 09:29:00;;;;;;;7.05;4.45;;;;;;;18.35;92.15;101750.03;5004671;28;20029;-61
2023/06/28 09:31:30;;;;;;;8.57;4.72;;;;;;;18.36;90.36;101757.25;5004947;28;20025;-63
2023/06/28 09:33:55;;;;;;;8.93;5.10;;;;;;;18.29;91.32;101754.66;5007173;28;20034;-63
2023/06/28 09:36:22;;;;;;;8.87;4.80;;;;;;;18.32;93.53;101754.16;5007939;28;20188;-61
2023/06/28 09:38:48;;;;;;;6.53;4.28;;;;;;;18.27;89.79;101761.59;5009032;28;20311;-60
2023/06/28 09:41:14;;;;;;;8.25;4.60;;;;;;;18.26;90.28;101760.75;5007927;28;20495;-60
2023/06/28 09:43:41;;;;;;;8.35;4.40;;;;;;;18.35;91.34;101758.38;5008998;28;20026;-60
2023/06/28 09:46:14;;;;;;;7.05;4.55;;;;;;;18.38;89.46;101760.63;5007893;28;20380;-61
2023/06/28 09:48:44;;;;;;;9.35;4.65;;;;;;;18.45;88.93;101752.06;5007229;28;20107;-61
2023/06/28 09:51:14;;;;;;;8.48;4.55;;;;;;;18.70;89.81;101751.50;5008026;28;20030;-60
2023/06/28 09:53:50;;;;;;;9.52;4.72;;;;;;;18.86;87.22;101736.66;5008720;28;20052;-60
2023/06/28 09:56:16;;;;;;;8.70;4.50;;;;;;;19.34;86.85;101738.44;5008321;28;20062;-61
2023/06/28 09:58:45;;;;;;;9.95;4.80;;;;;;;20.11;81.51;101742.50;5008124;28;20028;-60
2023/06/28 10:01:11;;;;;;;7.45;4.65;;;;;;;20.43;81.53;101733.97;5007801;28;20034;-61
2023/06/28 10:03:38;;;;;;;8.82;5.25;;;;;;;20.77;78.83;101727.06;5007760;28;20025;-60
2023/06/28 10:06:06;;;;;;;7.65;4.72;;;;;;;20.80;76.01;101730.16;5007523;28;20030;-60
2023/06/28 10:08:32;;;;;;;7.70;4.22;;;;;;;21.01;74.53;101733.78;5007926;28;20169;-60
2023/06/28 10:10:58;;;;;;;7.40;4.05;;;;;;;21.17;75.95;101741.03;5007775;28;20455;-60
2023/06/28 10:13:26;;;;;;;7.68;3.75;;;;;;;21.29;72.92;101731.53;5008390;28;20306;-60
2023/06/28 10:16:02;;;;;;;7.68;3.97;;;;;;;21.40;74.12;101730.47;5007583;28;20030;-61
2023/06/28 10:18:28;;;;;;;8.07;4.13;;;;;;;21.43;71.25;101729.88;5007234;28;20123;-62
2023/06/28 10:20:54;;;;;;;7.00;3.47;;;;;;;21.40;71.86;101727.66;5008112;28;20022;-60
2023/06/28 10:23:20;;;;;;;6.35;3.60;;;;;;;21.40;71.63;101728.50;5007245;28;20031;-61
2023/06/28 10:25:46;;;;;;;9.25;3.88;;;;;;;21.68;71.62;101726.19;5007653;28;20480;-60
2023/06/28 10:28:13;;;;;;;8.13;4.25;;;;;;;21.92;69.58;101727.22;5007682;28;20168;-62
2023/06/28 10:30:40;;;;;;;9.35;3.70;;;;;;;22.15;70.93;101725.78;5007217;28;20025;-61
2023/06/28 10:33:06;;;;;;;6.95;3.65;;;;;;;22.34;68.75;101727.88;5007409;28;20369;-60
2023/06/28 10:35:31;;;;;;;7.97;3.90;;;;;;;22.30;67.67;101729.59;5006231;28;20159;-60
2023/06/28 10:37:58;;;;;;;8.73;4.00;;;;;;;22.23;67.58;101722.34;5006812;28;20042;-61
2023/06/28 10:40:25;;;;;;;7.82;3.95;;;;;;;22.19;66.65;101720.41;5007539;28;20037;-62
2023/06/28 10:42:50;;;;;;;8.05;3.70;;;;;;;22.27;68.19;101723.47;5007729;28;20022;-61
2023/06/28 10:45:15;;;;;;;7.55;3.85;;;;;;;22.40;66.73;101723.94;5005618;28;20037;-60
2023/06/28 10:47:53;;;;;;;8.27;3.70;;;;;;;22.37;67.74;101727.31;5007716;28;20025;-60
2023/06/28 10:50:23;;;;;;;7.88;4.05;;;;;;;22.16;67.19;101726.59;5005833;28;20041;-61
2023/06/28 10:52:49;;;;;;;6.75;4.05;;;;;;;22.10;69.97;101724.91;5007347;28;20135;-61
2023/06/28 10:55:19;;;;;;;8.32;3.63;;;;;;;22.19;67.74;101731.59;5006791;28;20026;-60
2023/06/28 10:57:44;;;;;;;7.93;3.50;;;;;;;22.33;66.62;101720.63;5006882;28;20065;-60
2023/06/28 11:00:49;;;;;;;6.45;3.50;;;;;;;22.68;68.73;101722.38;5006614;28;20065;-60
2023/06/28 11:03:15;;;;;;;6.28;3.03;;;;;;;22.92;65.04;101720.53;5005931;28;20030;-61
2023/06/28 11:05:52;;;;;;;7.85;3.67;;;;;;;22.97;65.14;101720.50;5006528;28;20064;-61
2023/06/28 11:08:19;;;;;;;6.80;3.50;;;;;;;22.93;63.76;101712.97;5003428;28;20389;-61
2023/06/28 11:10:47;;;;;;;7.47;3.53;;;;;;;23.08;62.98;101710.03;5006478;28;20034;-60
2023/06/28 11:13:39;;;;;;;7.72;3.47;;;;;;;23.51;64.15;101713.78;5006879;28;20314;-61
2023/06/28 11:16:22;;;;;;;6.78;3.08;;;;;;;23.59;63.75;101703.91;5000793;28;20029;-61